Time;durP1;ratioP1;P1;durP2;ratioP2;P2;SDS_P1;SDS_P2;PMS_P1;PMS_P2;Temp;Humidity;BMP_temperature;BMP_pressure;BME280_temperature;BME280_humidity;BME280_pressure;Samples;Min_cycle;Max_cycle;Signal;HPM_P1;HPM_P2
2021/09/23 00:00:24;;;;;;;0.40;0.20;;;11.30;99.90;;;;;;4994358;28;20393;-71
2021/09/23 00:05:20;;;;;;;0.40;0.20;;;11.30;99.90;;;;;;5012235;28;20873;-71
2021/09/23 00:07:48;;;;;;;0.40;0.20;;;11.40;99.90;;;;;;5023194;28;20391;-71
2021/09/23 00:10:18;;;;;;;0.40;0.30;;;11.30;99.90;;;;;;5031748;28;20391;-71
2021/09/23 00:12:44;;;;;;;0.40;0.20;;;11.30;99.90;;;;;;4969259;28;1794795;-71
2021/09/23 00:15:14;;;;;;;0.40;0.30;;;11.20;99.90;;;;;;5032510;28;20846;-71
2021/09/23 00:17:48;;;;;;;0.40;0.30;;;11.10;99.90;;;;;;5033259;28;20375;-71
2021/09/23 00:20:18;;;;;;;0.40;0.30;;;11.20;99.90;;;;;;5032417;28;20736;-71
2021/09/23 00:22:44;;;;;;;0.40;0.30;;;11.10;99.90;;;;;;5032992;28;20446;-71
2021/09/23 00:25:12;;;;;;;0.40;0.30;;;11.00;99.90;;;;;;5032424;28;20386;-71
2021/09/23 00:27:38;;;;;;;0.40;0.20;;;11.00;99.90;;;;;;5032959;28;20384;-71
2021/09/23 00:30:05;;;;;;;0.40;0.20;;;11.10;99.90;;;;;;5032194;28;20372;-71
2021/09/23 00:32:31;;;;;;;0.40;0.20;;;11.20;99.90;;;;;;5033404;28;20733;-71
2021/09/23 00:34:56;;;;;;;0.40;0.20;;;11.20;99.90;;;;;;5031894;28;20452;-71
2021/09/23 00:37:22;;;;;;;0.40;0.30;;;11.20;99.90;;;;;;5032633;28;20392;-71
2021/09/23 00:39:48;;;;;;;0.40;0.30;;;11.20;99.90;;;;;;5032735;28;20454;-71
2021/09/23 00:42:13;;;;;;;0.40;0.30;;;11.20;99.90;;;;;;5032316;28;20415;-71
2021/09/23 00:44:39;;;;;;;0.40;0.20;;;11.10;99.90;;;;;;5032488;28;20391;-71
2021/09/23 00:47:05;;;;;;;0.40;0.30;;;11.10;99.90;;;;;;5014245;28;20755;-71
2021/09/23 00:49:31;;;;;;;0.40;0.30;;;11.00;99.90;;;;;;5032525;28;20397;-71
2021/09/23 00:51:57;;;;;;;0.40;0.30;;;11.00;99.90;;;;;;5031796;28;20391;-71
2021/09/23 00:54:23;;;;;;;0.40;0.20;;;11.00;99.90;;;;;;5014525;28;20438;-71
2021/09/23 00:56:48;;;;;;;0.40;0.20;;;11.00;99.90;;;;;;5032613;28;20379;-71
2021/09/23 00:59:14;;;;;;;0.40;0.20;;;11.00;99.90;;;;;;5031864;28;20529;-71
2021/09/23 01:01:45;;;;;;;0.40;0.20;;;10.90;99.90;;;;;;5031294;28;20474;-72
2021/09/23 01:04:14;;;;;;;0.40;0.30;;;10.80;99.90;;;;;;5031954;28;20387;-72
2021/09/23 01:06:40;;;;;;;0.40;0.30;;;10.80;99.90;;;;;;5032322;28;20390;-72
2021/09/23 01:09:05;;;;;;;0.40;0.20;;;10.70;99.90;;;;;;5031708;28;20391;-72
2021/09/23 01:11:31;;;;;;;0.40;0.20;;;10.70;99.90;;;;;;5032252;28;20729;-72
2021/09/23 01:13:56;;;;;;;0.40;0.20;;;10.70;99.90;;;;;;5031742;28;20449;-73
2021/09/23 01:16:22;;;;;;;0.40;0.30;;;10.70;99.90;;;;;;5014462;28;20434;-72
2021/09/23 01:18:48;;;;;;;0.40;0.30;;;10.90;99.90;;;;;;5014520;28;20453;-72
2021/09/23 01:21:14;;;;;;;0.40;0.20;;;10.90;99.90;;;;;;5031740;28;20813;-72
2021/09/23 01:23:41;;;;;;;0.40;0.20;;;10.90;99.90;;;;;;5032490;28;20421;-72
2021/09/23 01:26:09;;;;;;;0.40;0.20;;;10.90;99.90;;;;;;5013820;28;20437;-72
2021/09/23 01:28:34;;;;;;;0.40;0.20;;;10.90;99.90;;;;;;5032221;28;20772;-72
2021/09/23 01:31:01;;;;;;;0.40;0.20;;;10.70;99.90;;;;;;5031427;28;20436;-72
2021/09/23 01:33:28;;;;;;;0.40;0.20;;;10.80;99.90;;;;;;5031708;28;20395;-72
2021/09/23 01:35:54;;;;;;;0.40;0.20;;;10.60;99.90;;;;;;5031874;28;20379;-72
2021/09/23 01:38:20;;;;;;;0.40;0.20;;;10.60;99.90;;;;;;5031308;28;20384;-72
2021/09/23 01:40:45;;;;;;;0.40;0.20;;;10.60;99.90;;;;;;5031885;28;20375;-72
2021/09/23 01:43:11;;;;;;;0.40;0.20;;;10.60;99.90;;;;;;5031361;28;20438;-72
2021/09/23 01:45:37;;;;;;;0.40;0.30;;;10.50;99.90;;;;;;5014038;28;20898;-72
2021/09/23 01:48:03;;;;;;;0.50;0.50;;;10.50;99.90;;;;;;5031189;28;20858;-72
2021/09/23 01:50:29;;;;;;;0.40;0.20;;;10.50;99.90;;;;;;5031463;28;20386;-72
2021/09/23 01:52:54;;;;;;;0.40;0.30;;;10.50;99.90;;;;;;5031361;28;20383;-72
2021/09/23 01:55:20;;;;;;;0.40;0.20;;;10.40;99.90;;;;;;5030991;28;20478;-72
2021/09/23 01:57:46;;;;;;;0.40;0.20;;;10.40;99.90;;;;;;5031605;28;20429;-72
2021/09/23 02:00:12;;;;;;;0.40;0.20;;;10.30;99.90;;;;;;5030826;28;20878;-72
2021/09/23 02:02:38;;;;;;;0.40;0.30;;;10.20;99.90;;;;;;5031346;28;20736;-72
2021/09/23 02:05:04;;;;;;;0.40;0.30;;;10.10;99.90;;;;;;5030721;28;20445;-72
2021/09/23 02:07:29;;;;;;;0.40;0.30;;;10.00;99.90;;;;;;5022213;28;20388;-72
2021/09/23 02:09:55;;;;;;;0.40;0.20;;;10.00;99.90;;;;;;5011895;28;20381;-72
2021/09/23 02:12:22;;;;;;;0.40;0.30;;;9.90;99.90;;;;;;5010739;28;20385;-72
2021/09/23 02:14:48;;;;;;;0.40;0.30;;;10.00;99.90;;;;;;5011443;28;20438;-72
2021/09/23 02:17:14;;;;;;;0.40;0.20;;;9.90;99.90;;;;;;5010875;28;20457;-72
2021/09/23 02:19:40;;;;;;;0.40;0.20;;;9.80;99.90;;;;;;5011560;28;20794;-72
2021/09/23 02:22:06;;;;;;;0.40;0.30;;;9.70;99.90;;;;;;5010336;28;20424;-72
2021/09/23 02:24:31;;;;;;;0.40;0.30;;;9.60;99.90;;;;;;5011611;28;20734;-72
2021/09/23 02:26:57;;;;;;;0.40;0.20;;;9.60;99.90;;;;;;5011249;28;20385;-72
2021/09/23 02:29:23;;;;;;;0.40;0.20;;;9.60;99.90;;;;;;5010527;28;20918;-72
2021/09/23 02:31:48;;;;;;;0.40;0.20;;;9.70;99.90;;;;;;5011241;28;20410;-71
2021/09/23 02:34:14;;;;;;;0.40;0.30;;;9.70;99.90;;;;;;5011032;28;20396;-72
2021/09/23 02:36:39;;;;;;;0.40;0.20;;;9.70;99.90;;;;;;5011414;28;20420;-72
2021/09/23 02:39:05;;;;;;;0.40;0.20;;;9.80;99.90;;;;;;5010378;28;20389;-72
2021/09/23 02:41:32;;;;;;;0.40;0.20;;;9.90;99.90;;;;;;5010997;28;20486;-71
2021/09/23 02:43:59;;;;;;;0.40;0.20;;;9.90;99.90;;;;;;5011241;28;20400;-72
2021/09/23 02:46:25;;;;;;;0.40;0.20;;;9.90;99.90;;;;;;5011104;28;20428;-72
2021/09/23 02:48:50;;;;;;;0.40;0.30;;;9.80;99.90;;;;;;5010917;28;20781;-72
2021/09/23 02:51:16;;;;;;;0.40;0.30;;;9.70;99.90;;;;;;5010119;28;20392;-72
2021/09/23 02:53:43;;;;;;;0.40;0.20;;;9.80;99.90;;;;;;5011128;28;20388;-72
2021/09/23 02:56:10;;;;;;;0.40;0.30;;;9.80;99.90;;;;;;5010385;28;20385;-72
2021/09/23 02:58:36;;;;;;;0.40;0.20;;;9.70;99.90;;;;;;5011237;28;20885;-72
2021/09/23 03:01:02;;;;;;;0.40;0.30;;;9.70;99.90;;;;;;5010389;28;20530;-73
2021/09/23 03:03:27;;;;;;;0.40;0.20;;;9.70;99.90;;;;;;5011112;28;20475;-72
2021/09/23 03:05:53;;;;;;;0.40;0.30;;;9.50;99.90;;;;;;4993195;28;20448;-72
2021/09/23 03:08:20;;;;;;;0.40;0.20;;;9.40;99.90;;;;;;5010393;28;20405;-72
2021/09/23 03:10:45;;;;;;;0.40;0.30;;;9.30;99.90;;;;;;5010866;28;20817;-71
2021/09/23 03:13:11;;;;;;;0.40;0.20;;;9.50;99.90;;;;;;5009954;28;20400;-72
2021/09/23 03:15:36;;;;;;;0.40;0.20;;;9.60;99.90;;;;;;4993335;28;20928;-72
2021/09/23 03:18:02;;;;;;;0.40;0.20;;;9.50;99.90;;;;;;5010535;28;20381;-73
2021/09/23 03:20:29;;;;;;;0.40;0.20;;;9.50;99.90;;;;;;5010895;28;20424;-73
2021/09/23 03:22:55;;;;;;;0.40;0.20;;;9.60;99.90;;;;;;4993219;28;20415;-72
2021/09/23 03:25:21;;;;;;;0.40;0.20;;;9.40;99.90;;;;;;5012221;28;20741;-72
2021/09/23 03:27:48;;;;;;;0.40;0.30;;;9.20;99.90;;;;;;5014427;28;20858;-72
2021/09/23 03:30:13;;;;;;;0.40;0.20;;;9.20;99.90;;;;;;5013692;28;20381;-72
2021/09/23 03:32:39;;;;;;;0.40;0.30;;;9.20;99.90;;;;;;5014599;28;20393;-72
2021/09/23 03:35:05;;;;;;;0.40;0.30;;;9.30;99.90;;;;;;5013904;28;20373;-72
2021/09/23 03:37:31;;;;;;;0.40;0.30;;;9.50;99.90;;;;;;5014280;28;20423;-72
2021/09/23 03:39:56;;;;;;;0.40;0.27;;;9.60;99.90;;;;;;5014625;28;20417;-72
2021/09/23 03:42:22;;;;;;;0.40;0.20;;;9.30;99.90;;;;;;5013661;28;21173;-72
2021/09/23 03:44:48;;;;;;;0.40;0.30;;;9.40;99.90;;;;;;5014176;28;20416;-72
2021/09/23 03:47:14;;;;;;;0.40;0.30;;;9.40;99.90;;;;;;4995994;28;20892;-72
2021/09/23 03:49:40;;;;;;;0.40;0.25;;;9.50;99.90;;;;;;5014412;28;20400;-73
2021/09/23 03:52:06;;;;;;;0.40;0.20;;;9.40;99.90;;;;;;5013634;28;20385;-73
2021/09/23 03:54:31;;;;;;;0.40;0.20;;;9.40;99.90;;;;;;5014133;28;20392;-73
2021/09/23 03:56:57;;;;;;;0.40;0.30;;;9.40;99.90;;;;;;5013988;28;20435;-72
2021/09/23 03:59:23;;;;;;;0.40;0.20;;;9.40;99.90;;;;;;5013279;28;20400;-71
2021/09/23 04:01:49;;;;;;;0.40;0.30;;;9.40;99.90;;;;;;5013962;28;20405;-72
2021/09/23 04:04:15;;;;;;;0.60;0.50;;;9.30;99.90;;;;;;4996043;28;20782;-72
2021/09/23 04:06:44;;;;;;;0.40;0.20;;;9.30;99.90;;;;;;5016478;28;20381;-72
2021/09/23 04:09:13;;;;;;;0.40;0.20;;;9.40;99.90;;;;;;5033024;28;20387;-73
2021/09/23 04:11:39;;;;;;;0.40;0.30;;;9.50;99.90;;;;;;5033549;28;20391;-73
2021/09/23 04:14:07;;;;;;;0.40;0.20;;;9.50;99.90;;;;;;5033119;28;20489;-75
2021/09/23 04:16:33;;;;;;;0.40;0.20;;;9.40;99.90;;;;;;5033476;28;20750;-73
2021/09/23 04:18:59;;;;;;;0.40;0.20;;;9.20;99.90;;;;;;5033691;28;20383;-72
2021/09/23 04:21:25;;;;;;;0.40;0.20;;;9.10;99.90;;;;;;5015170;28;21086;-72
2021/09/23 04:23:51;;;;;;;0.40;0.20;;;9.10;99.90;;;;;;5033593;28;20742;-72
2021/09/23 04:26:17;;;;;;;0.40;0.20;;;9.10;99.90;;;;;;5032932;28;20474;-72
2021/09/23 04:28:42;;;;;;;0.40;0.20;;;9.10;99.90;;;;;;5033249;28;20446;-72
2021/09/23 04:31:08;;;;;;;0.40;0.20;;;9.20;99.90;;;;;;5032937;28;20430;-72
2021/09/23 04:33:34;;;;;;;0.40;0.20;;;9.10;99.90;;;;;;5033305;28;20384;-72
2021/09/23 04:35:59;;;;;;;0.40;0.20;;;9.00;99.90;;;;;;5033399;28;20403;-72
2021/09/23 04:38:25;;;;;;;0.40;0.20;;;8.90;99.90;;;;;;5032379;28;20454;-72
2021/09/23 04:40:51;;;;;;;0.40;0.20;;;8.80;99.90;;;;;;5015554;28;20386;-72
2021/09/23 04:43:17;;;;;;;0.40;0.20;;;8.90;99.90;;;;;;5032667;28;20922;-72
2021/09/23 04:45:42;;;;;;;0.40;0.20;;;9.00;99.90;;;;;;5033485;28;20394;-72
2021/09/23 04:48:08;;;;;;;0.40;0.20;;;8.80;99.90;;;;;;5032564;28;20844;-72
2021/09/23 04:50:34;;;;;;;0.40;0.20;;;8.80;99.90;;;;;;5032846;28;20426;-72
2021/09/23 04:53:03;;;;;;;0.40;0.20;;;8.70;99.90;;;;;;5032926;28;20391;-72
2021/09/23 04:55:29;;;;;;;0.40;0.25;;;8.80;99.90;;;;;;5032343;28;20415;-72
2021/09/23 04:57:54;;;;;;;0.40;0.30;;;8.90;99.90;;;;;;5032935;28;20421;-72
2021/09/23 05:00:20;;;;;;;0.40;0.20;;;8.90;99.90;;;;;;5032386;28;20376;-72
2021/09/23 05:02:47;;;;;;;0.40;0.20;;;8.80;99.90;;;;;;5032083;28;20415;-72
2021/09/23 05:05:12;;;;;;;0.40;0.20;;;8.70;99.90;;;;;;5032280;28;20684;-72
2021/09/23 05:07:38;;;;;;;0.40;0.20;;;8.60;99.90;;;;;;5032968;28;20388;-72
2021/09/23 05:10:04;;;;;;;0.40;0.20;;;8.60;99.90;;;;;;5032732;28;20472;-72
2021/09/23 05:12:30;;;;;;;0.40;0.20;;;8.60;99.90;;;;;;5031843;28;20403;-72
2021/09/23 05:14:56;;;;;;;0.40;0.20;;;8.60;99.90;;;;;;5032716;28;20394;-72
2021/09/23 05:17:21;;;;;;;0.40;0.20;;;8.60;99.90;;;;;;5031735;28;20478;-72
2021/09/23 05:19:47;;;;;;;0.40;0.30;;;8.70;99.90;;;;;;5032472;28;20375;-72
2021/09/23 05:22:14;;;;;;;0.40;0.20;;;8.90;99.90;;;;;;5031810;28;20969;-72
2021/09/23 05:24:40;;;;;;;0.40;0.20;;;9.00;99.90;;;;;;5032569;28;20379;-72
2021/09/23 05:27:06;;;;;;;0.40;0.30;;;9.00;99.90;;;;;;5032690;28;20389;-72
2021/09/23 05:29:32;;;;;;;0.40;0.30;;;9.10;99.90;;;;;;5032011;28;20383;-72
2021/09/23 05:31:57;;;;;;;0.40;0.30;;;9.00;99.90;;;;;;5032434;28;20386;-72
2021/09/23 05:34:24;;;;;;;0.40;0.20;;;8.90;99.90;;;;;;5030918;28;20442;-72
2021/09/23 05:36:50;;;;;;;0.40;0.20;;;8.80;99.90;;;;;;5031816;28;20383;-72
2021/09/23 05:39:16;;;;;;;0.40;0.30;;;8.90;99.90;;;;;;5031324;28;20449;-72
2021/09/23 05:41:42;;;;;;;0.40;0.20;;;8.90;99.90;;;;;;5032084;28;20415;-72
2021/09/23 05:44:08;;;;;;;0.40;0.20;;;8.80;99.90;;;;;;5031700;28;20426;-71
2021/09/23 05:46:34;;;;;;;0.40;0.30;;;8.90;99.90;;;;;;5031635;28;20411;-72
2021/09/23 05:49:00;;;;;;;0.40;0.30;;;9.00;99.90;;;;;;5031179;28;20422;-72
2021/09/23 05:51:26;;;;;;;0.40;0.20;;;8.80;99.90;;;;;;5031256;28;20829;-72
2021/09/23 05:53:51;;;;;;;0.40;0.20;;;8.90;99.90;;;;;;5031508;28;20458;-72
2021/09/23 05:56:17;;;;;;;0.40;0.20;;;8.90;99.90;;;;;;5031246;28;20449;-72
2021/09/23 05:58:42;;;;;;;0.40;0.20;;;8.90;99.90;;;;;;5031759;28;20862;-73
2021/09/23 06:01:08;;;;;;;0.40;0.20;;;8.90;99.90;;;;;;5031746;28;20911;-72
2021/09/23 06:03:34;;;;;;;0.40;0.20;;;8.90;99.90;;;;;;5031080;28;20859;-72
2021/09/23 06:05:59;;;;;;;0.40;0.20;;;8.80;99.90;;;;;;5031723;28;20886;-72
2021/09/23 06:08:25;;;;;;;0.40;0.20;;;8.90;99.90;;;;;;5014327;28;20435;-72
2021/09/23 06:10:50;;;;;;;0.40;0.30;;;8.90;99.90;;;;;;5011486;28;20394;-72
2021/09/23 06:13:16;;;;;;;0.40;0.30;;;9.10;99.90;;;;;;5011137;28;20496;-72
2021/09/23 06:15:42;;;;;;;0.40;0.30;;;9.00;99.90;;;;;;5011607;28;20389;-72
2021/09/23 06:18:07;;;;;;;0.40;0.20;;;9.00;99.90;;;;;;5011408;28;20381;-72
2021/09/23 06:20:33;;;;;;;0.40;0.20;;;9.10;99.90;;;;;;5011056;28;20385;-72
2021/09/23 06:22:59;;;;;;;0.40;0.20;;;9.00;99.90;;;;;;5011092;28;20420;-72
2021/09/23 06:25:24;;;;;;;0.40;0.20;;;9.30;99.90;;;;;;5011021;28;20443;-70
2021/09/23 06:27:50;;;;;;;0.40;0.20;;;9.30;99.90;;;;;;5011513;28;20377;-71
2021/09/23 06:30:17;;;;;;;0.40;0.20;;;9.50;99.90;;;;;;5011258;28;20451;-72
2021/09/23 06:32:43;;;;;;;0.40;0.20;;;9.50;99.90;;;;;;5011611;28;20393;-73
2021/09/23 06:35:10;;;;;;;0.40;0.20;;;9.40;99.90;;;;;;5011474;28;20932;-72
2021/09/23 06:37:36;;;;;;;0.40;0.20;;;9.40;99.90;;;;;;5010746;28;20797;-72
2021/09/23 06:40:04;;;;;;;0.40;0.20;;;9.40;99.90;;;;;;4993795;28;20384;-72
2021/09/23 06:42:30;;;;;;;0.40;0.20;;;9.60;99.90;;;;;;5011110;28;20416;-72
2021/09/23 06:44:55;;;;;;;0.40;0.20;;;9.60;99.90;;;;;;5011070;28;20904;-72
2021/09/23 06:47:21;;;;;;;0.40;0.20;;;9.70;99.90;;;;;;5010780;28;20853;-72
2021/09/23 06:49:47;;;;;;;0.40;0.20;;;9.70;99.90;;;;;;5011355;28;20427;-72
2021/09/23 06:52:13;;;;;;;0.50;0.47;;;9.70;99.90;;;;;;5011465;28;20482;-72
2021/09/23 06:54:39;;;;;;;0.40;0.20;;;9.90;99.90;;;;;;5010638;28;20861;-72
2021/09/23 06:57:05;;;;;;;0.40;0.20;;;9.90;99.90;;;;;;5011395;28;20391;-72
2021/09/23 06:59:30;;;;;;;0.40;0.30;;;10.00;99.90;;;;;;5011926;28;20392;-72
2021/09/23 07:01:56;;;;;;;0.40;0.30;;;10.20;99.90;;;;;;5015241;28;20416;-72
2021/09/23 07:04:21;;;;;;;0.40;0.20;;;10.10;99.90;;;;;;5014418;28;20861;-72
2021/09/23 07:06:47;;;;;;;0.40;0.20;;;10.20;99.90;;;;;;5018505;28;20383;-72
2021/09/23 07:09:13;;;;;;;0.40;0.20;;;10.40;99.90;;;;;;5034928;28;20383;-72
2021/09/23 07:11:38;;;;;;;0.40;0.20;;;10.60;99.90;;;;;;5033958;28;20403;-72
2021/09/23 07:14:05;;;;;;;0.40;0.30;;;10.60;99.90;;;;;;5034758;28;20488;-73
2021/09/23 07:16:30;;;;;;;0.40;0.30;;;10.60;99.90;;;;;;5034146;28;20387;-73
2021/09/23 07:18:56;;;;;;;0.40;0.30;;;10.70;99.90;;;;;;5034661;28;20429;-72
2021/09/23 07:21:22;;;;;;;0.40;0.30;;;10.90;99.90;;;;;;5033825;28;20415;-73
2021/09/23 07:23:47;;;;;;;0.40;0.20;;;10.90;99.90;;;;;;5034446;28;20388;-73
2021/09/23 07:26:16;;;;;;;0.40;0.20;;;11.10;99.90;;;;;;5034641;28;20914;-72
2021/09/23 07:28:42;;;;;;;0.40;0.20;;;11.20;99.90;;;;;;5034588;28;20394;-73
2021/09/23 07:31:08;;;;;;;0.40;0.20;;;11.20;99.90;;;;;;5034575;28;20391;-73
2021/09/23 07:33:33;;;;;;;0.40;0.30;;;11.30;99.90;;;;;;5033864;28;20464;-73
2021/09/23 07:35:59;;;;;;;0.40;0.30;;;11.30;99.90;;;;;;5034512;28;20463;-72
2021/09/23 07:38:25;;;;;;;0.40;0.20;;;11.40;99.90;;;;;;5033943;28;20430;-72
2021/09/23 07:40:50;;;;;;;0.40;0.20;;;11.50;99.90;;;;;;5034265;28;20460;-72
2021/09/23 07:43:16;;;;;;;0.40;0.20;;;11.60;99.90;;;;;;5034234;28;20497;-72
2021/09/23 07:45:42;;;;;;;0.40;0.30;;;11.70;99.90;;;;;;5034165;28;20402;-72
2021/09/23 07:48:07;;;;;;;0.40;0.30;;;11.90;99.90;;;;;;5034288;28;20378;-72
2021/09/23 07:50:33;;;;;;;0.40;0.20;;;12.00;99.90;;;;;;5033665;28;20386;-72
2021/09/23 07:52:59;;;;;;;0.40;0.30;;;12.10;99.90;;;;;;5016065;28;20394;-72
2021/09/23 07:55:24;;;;;;;0.40;0.20;;;12.20;99.90;;;;;;5015740;28;20935;-73
2021/09/23 07:57:50;;;;;;;0.40;0.30;;;12.30;99.90;;;;;;5034088;28;20433;-72
2021/09/23 08:00:16;;;;;;;0.40;0.20;;;12.40;99.90;;;;;;5033980;28;20504;-72
2021/09/23 08:02:43;;;;;;;0.40;0.30;;;12.50;99.90;;;;;;5033375;28;20410;-72
2021/09/23 08:05:08;;;;;;;0.40;0.20;;;12.50;99.90;;;;;;5033222;28;20482;-72
2021/09/23 08:07:34;;;;;;;0.40;0.30;;;12.60;99.90;;;;;;5005344;28;20429;-72
2021/09/23 08:10:00;;;;;;;0.40;0.20;;;12.70;99.90;;;;;;4996018;28;20455;-72
2021/09/23 08:12:27;;;;;;;0.40;0.20;;;12.80;99.90;;;;;;4995423;28;20412;-73
2021/09/23 08:14:53;;;;;;;0.40;0.20;;;12.90;99.90;;;;;;4996786;28;20730;-72
2021/09/23 08:17:19;;;;;;;0.40;0.30;;;13.00;99.90;;;;;;5014272;28;20388;-72
2021/09/23 08:19:44;;;;;;;0.40;0.20;;;13.30;99.90;;;;;;5013805;28;20420;-71
2021/09/23 08:22:10;;;;;;;0.40;0.20;;;13.50;99.90;;;;;;5013793;28;20409;-72
2021/09/23 08:24:36;;;;;;;0.40;0.20;;;13.70;99.90;;;;;;5013136;28;20749;-72
2021/09/23 08:27:02;;;;;;;0.40;0.20;;;13.80;99.90;;;;;;5013892;28;20471;-71
2021/09/23 08:29:28;;;;;;;0.40;0.30;;;13.90;99.90;;;;;;5013377;28;20463;-72
2021/09/23 08:31:55;;;;;;;0.40;0.20;;;13.80;99.90;;;;;;5013853;28;20492;-71
2021/09/23 08:34:21;;;;;;;0.40;0.30;;;13.90;99.90;;;;;;5012827;28;20477;-73
2021/09/23 08:36:46;;;;;;;0.40;0.20;;;14.10;99.90;;;;;;5013644;28;20393;-71
2021/09/23 08:39:12;;;;;;;0.40;0.20;;;14.20;99.90;;;;;;5014805;28;20806;-72
2021/09/23 08:41:39;;;;;;;0.40;0.20;;;14.30;99.90;;;;;;5012495;28;20765;-72
2021/09/23 08:44:05;;;;;;;0.40;0.30;;;14.40;99.90;;;;;;5013458;28;20397;-72
2021/09/23 08:46:35;;;;;;;0.40;0.30;;;14.40;99.90;;;;;;5012536;28;20408;-72
2021/09/23 08:49:03;;;;;;;0.40;0.30;;;14.30;99.90;;;;;;5013372;28;20423;-71
2021/09/23 08:51:29;;;;;;;0.40;0.28;;;14.30;99.90;;;;;;5012525;28;20385;-71
2021/09/23 08:53:54;;;;;;;0.40;0.30;;;14.30;99.90;;;;;;5012923;28;20464;-72
2021/09/23 08:56:21;;;;;;;0.40;0.30;;;14.40;99.90;;;;;;5013234;28;20857;-72
2021/09/23 08:58:47;;;;;;;0.40;0.30;;;14.50;99.90;;;;;;5013294;28;20393;-72
2021/09/23 09:01:16;;;;;;;0.40;0.20;;;14.40;99.90;;;;;;5013068;28;20393;-73
2021/09/23 09:03:42;;;;;;;0.40;0.30;;;14.40;99.90;;;;;;5012511;28;21048;-71
2021/09/23 09:06:12;;;;;;;0.40;0.30;;;14.60;99.90;;;;;;5013192;28;20468;-71
2021/09/23 09:08:38;;;;;;;0.40;0.30;;;14.60;99.90;;;;;;5030572;28;20383;-72
2021/09/23 09:11:08;;;;;;;0.40;0.30;;;14.60;99.90;;;;;;5032501;28;20387;-72
2021/09/23 09:13:39;;;;;;;0.40;0.30;;;14.70;99.90;;;;;;5031836;28;20764;-72
2021/09/23 09:16:17;;;;;;;0.40;0.30;;;14.80;99.90;;;;;;5032611;28;20711;-72
2021/09/23 09:18:43;;;;;;;0.40;0.20;;;14.90;99.90;;;;;;5013976;28;20788;-72
2021/09/23 09:21:16;;;;;;;0.40;0.20;;;14.90;99.90;;;;;;5032186;28;20882;-72
2021/09/23 09:24:01;;;;;;;0.40;0.20;;;15.00;99.90;;;;;;5031079;28;20395;-72
2021/09/23 09:26:45;;;;;;;0.40;0.30;;;15.00;99.90;;;;;;5031773;28;20394;-72
2021/09/23 09:29:13;;;;;;;0.40;0.30;;;15.00;99.90;;;;;;5032253;28;20453;-72
2021/09/23 09:31:47;;;;;;;0.40;0.30;;;15.20;99.90;;;;;;5031580;28;20383;-72
2021/09/23 09:34:13;;;;;;;0.40;0.30;;;15.40;99.90;;;;;;5032445;28;20521;-72
2021/09/23 09:36:42;;;;;;;0.40;0.20;;;15.40;99.90;;;;;;5031593;28;20394;-73
2021/09/23 09:39:17;;;;;;;0.40;0.20;;;15.50;99.90;;;;;;5032177;28;20466;-72
2021/09/23 09:41:46;;;;;;;0.40;0.20;;;15.60;99.90;;;;;;5031231;28;20417;-72
2021/09/23 09:44:13;;;;;;;0.40;0.30;;;15.70;99.90;;;;;;5031725;28;20403;-72
2021/09/23 09:46:46;;;;;;;0.40;0.30;;;15.70;99.90;;;;;;5031555;28;20756;-72
2021/09/23 09:49:12;;;;;;;0.40;0.30;;;15.80;99.90;;;;;;5014392;28;20744;-72
2021/09/23 09:51:41;;;;;;;0.40;0.30;;;15.90;99.90;;;;;;5031301;28;20386;-72
2021/09/23 09:54:10;;;;;;;0.40;0.30;;;16.00;99.90;;;;;;5031520;28;20926;-72
2021/09/23 09:56:38;;;;;;;0.40;0.30;;;16.20;99.90;;;;;;5031193;28;20398;-73
2021/09/23 09:59:04;;;;;;;0.40;0.20;;;16.20;99.90;;;;;;5031838;28;20470;-72
2021/09/23 10:01:31;;;;;;;0.40;0.20;;;16.10;99.90;;;;;;5030606;28;21022;-73
2021/09/23 10:03:57;;;;;;;0.40;0.30;;;16.10;99.90;;;;;;5031416;28;20449;-72
2021/09/23 10:06:24;;;;;;;0.40;0.30;;;16.30;99.90;;;;;;5031552;28;20391;-73
2021/09/23 10:08:51;;;;;;;0.40;0.30;;;16.30;99.90;;;;;;5031212;28;20383;-72
2021/09/23 10:11:18;;;;;;;0.40;0.30;;;16.50;99.90;;;;;;5013353;28;20399;-73
2021/09/23 10:13:45;;;;;;;0.40;0.30;;;16.60;99.90;;;;;;5030890;28;20419;-72
2021/09/23 10:16:12;;;;;;;0.40;0.30;;;16.70;99.90;;;;;;5031397;28;20399;-72
2021/09/23 10:18:39;;;;;;;0.40;0.30;;;16.90;99.90;;;;;;5030781;28;20735;-73
2021/09/23 10:21:05;;;;;;;0.40;0.30;;;17.20;99.90;;;;;;5031328;28;20382;-72
2021/09/23 10:23:38;;;;;;;0.40;0.30;;;17.20;99.90;;;;;;5030374;28;20411;-73
2021/09/23 10:26:05;;;;;;;0.40;0.20;;;17.30;99.90;;;;;;5031197;28;20461;-73
2021/09/23 10:28:31;;;;;;;0.40;0.20;;;17.30;99.90;;;;;;5030818;28;20375;-73
2021/09/23 10:30:57;;;;;;;0.40;0.30;;;17.50;99.90;;;;;;5031320;28;20398;-73
2021/09/23 10:33:23;;;;;;;0.40;0.20;;;17.60;99.90;;;;;;5031229;28;20391;-73
2021/09/23 10:35:49;;;;;;;0.40;0.20;;;17.80;99.90;;;;;;5030262;28;20390;-73
2021/09/23 10:38:15;;;;;;;0.40;0.20;;;17.90;99.20;;;;;;5031301;28;20934;-73
2021/09/23 10:40:42;;;;;;;0.40;0.20;;;18.00;98.80;;;;;;5030336;28;20890;-72
2021/09/23 10:43:18;;;;;;;0.40;0.30;;;18.30;97.50;;;;;;5013436;28;20421;-72
2021/09/23 10:45:44;;;;;;;0.40;0.20;;;18.30;97.80;;;;;;5030428;28;20391;-73
2021/09/23 10:48:10;;;;;;;0.40;0.20;;;18.50;96.90;;;;;;5031002;28;20394;-71
2021/09/23 10:50:38;;;;;;;0.40;0.30;;;18.70;96.00;;;;;;5030503;28;20755;-73
2021/09/23 10:53:06;;;;;;;0.40;0.30;;;18.80;95.30;;;;;;5031046;28;20387;-71
2021/09/23 10:55:35;;;;;;;0.40;0.30;;;18.80;93.60;;;;;;5030490;28;20390;-72
2021/09/23 10:58:04;;;;;;;0.40;0.25;;;19.10;92.70;;;;;;5030577;28;20394;-73
2021/09/23 11:00:33;;;;;;;0.40;0.20;;;19.10;92.50;;;;;;5030303;28;20776;-75
2021/09/23 11:03:09;;;;;;;0.40;0.30;;;19.20;91.90;;;;;;5030706;28;20962;-72
2021/09/23 11:05:35;;;;;;;0.40;0.23;;;19.50;91.30;;;;;;5030493;28;20379;-73
2021/09/23 11:08:14;;;;;;;1.00;0.90;;;19.60;90.90;;;;;;5030989;28;20395;-72
2021/09/23 11:10:44;;;;;;;0.40;0.30;;;19.90;87.40;;;;;;5030457;28;20371;-73
2021/09/23 11:13:13;;;;;;;0.40;0.20;;;19.90;85.60;;;;;;5030283;28;20407;-72
2021/09/23 11:15:40;;;;;;;0.40;0.30;;;20.30;87.70;;;;;;5030212;28;20379;-73
2021/09/23 11:18:08;;;;;;;0.40;0.30;;;20.70;84.20;;;;;;5012930;28;20406;-72
2021/09/23 11:20:35;;;;;;;0.40;0.20;;;20.50;82.30;;;;;;5030271;28;20376;-73
2021/09/23 11:23:04;;;;;;;0.40;0.30;;;20.90;81.30;;;;;;5030633;28;20478;-72
2021/09/23 11:25:33;;;;;;;0.40;0.30;;;22.30;79.90;;;;;;5030950;28;20864;-72
2021/09/23 11:28:00;;;;;;;0.40;0.30;;;22.90;75.30;;;;;;5030668;28;20490;-72
2021/09/23 11:30:28;;;;;;;0.40;0.30;;;23.50;74.30;;;;;;5030551;28;20891;-72
2021/09/23 11:33:06;;;;;;;0.50;0.40;;;24.10;71.10;;;;;;5029925;28;20383;-73
2021/09/23 11:35:44;;;;;;;0.40;0.20;;;24.60;70.60;;;;;;5030406;28;20387;-74
2021/09/23 11:38:14;;;;;;;0.40;0.20;;;25.40;70.40;;;;;;5030867;28;20382;-71
2021/09/23 11:40:42;;;;;;;0.40;0.30;;;24.10;67.50;;;;;;5030208;28;20471;-72
2021/09/23 11:43:11;;;;;;;0.40;0.30;;;24.30;69.10;;;;;;5030860;28;20423;-72
2021/09/23 11:45:43;;;;;;;0.40;0.20;;;23.40;72.10;;;;;;5031268;28;20398;-73
2021/09/23 11:48:12;;;;;;;0.40;0.20;;;24.30;69.80;;;;;;5034140;28;20397;-73
2021/09/23 11:50:55;;;;;;;0.40;0.20;;;24.40;68.80;;;;;;5033447;28;20390;-73
2021/09/23 11:53:29;;;;;;;0.40;0.20;;;24.00;67.80;;;;;;5033734;28;20425;-73
2021/09/23 11:55:57;;;;;;;0.40;0.30;;;23.70;72.00;;;;;;5013514;28;21010;-74
2021/09/23 11:58:23;;;;;;;0.40;0.20;;;24.00;75.30;;;;;;5033196;28;20919;-73
2021/09/23 12:00:50;;;;;;;0.40;0.30;;;23.60;75.30;;;;;;5015251;28;20454;-73
2021/09/23 12:03:18;;;;;;;0.40;0.20;;;24.10;73.90;;;;;;5033555;28;20418;-73
2021/09/23 12:05:46;;;;;;;0.40;0.30;;;24.40;73.50;;;;;;5021459;28;20448;-73
2021/09/23 12:08:17;;;;;;;0.40;0.30;;;23.50;74.60;;;;;;5022577;28;20745;-73
2021/09/23 12:10:51;;;;;;;0.40;0.20;;;24.30;73.20;;;;;;5018977;28;20384;-73
2021/09/23 12:13:23;;;;;;;0.40;0.30;;;24.70;71.20;;;;;;5022509;28;20865;-73
2021/09/23 12:15:53;;;;;;;0.40;0.20;;;24.80;70.70;;;;;;5021943;28;20896;-72
2021/09/23 12:18:21;;;;;;;0.40;0.30;;;24.20;71.70;;;;;;5023480;28;20397;-73
2021/09/23 12:20:50;;;;;;;0.40;0.30;;;24.30;72.60;;;;;;5020356;28;20385;-72
2021/09/23 12:23:19;;;;;;;0.40;0.20;;;24.40;74.70;;;;;;5015320;28;20427;-72
2021/09/23 12:26:09;;;;;;;0.40;0.30;;;23.20;77.60;;;;;;5017282;28;20400;-72
2021/09/23 12:28:39;;;;;;;0.40;0.20;;;23.50;79.20;;;;;;5015580;28;20380;-75
2021/09/23 12:31:07;;;;;;;0.40;0.30;;;24.00;78.00;;;;;;5028671;28;20394;-72
2021/09/23 12:33:33;;;;;;;0.40;0.20;;;23.90;75.90;;;;;;5009036;28;20748;-72
2021/09/23 12:36:16;;;;;;;0.40;0.30;;;23.20;80.10;;;;;;5014039;28;20404;-73
2021/09/23 12:38:42;;;;;;;0.40;0.20;;;23.30;79.50;;;;;;5024296;28;20389;-72
2021/09/23 12:41:22;;;;;;;0.40;0.30;;;23.40;77.50;;;;;;5013347;28;20395;-72
2021/09/23 12:43:50;;;;;;;0.40;0.30;;;23.10;79.50;;;;;;5013620;28;20403;-73
2021/09/23 12:46:16;;;;;;;0.40;0.30;;;23.20;82.20;;;;;;5029664;28;20751;-72
2021/09/23 12:48:48;;;;;;;0.40;0.20;;;23.20;82.70;;;;;;5014272;28;20867;-73
2021/09/23 12:51:33;;;;;;;0.40;0.20;;;23.20;79.20;;;;;;5015130;28;20403;-72